createdAt,value
2022-10-11T00:01:35.465Z,100521.60
2022-10-11T00:04:08.487Z,100520.20
2022-10-11T00:06:43.630Z,100522.80
2022-10-11T00:09:17.136Z,100519.40
2022-10-11T00:11:50.037Z,100524.80
2022-10-11T00:14:22.840Z,100524.00
2022-10-11T00:16:55.839Z,100526.20
2022-10-11T00:19:28.839Z,100524.80
2022-10-11T00:22:01.833Z,100530.80
2022-10-11T00:24:34.662Z,100526.40
2022-10-11T00:27:07.471Z,100534.00
2022-10-11T00:29:41.475Z,100530.40
2022-10-11T00:32:14.295Z,100535.00
2022-10-11T00:34:47.450Z,100541.80
2022-10-11T00:37:20.599Z,100543.40
2022-10-11T00:39:54.359Z,100543.80
2022-10-11T00:42:27.649Z,100548.40
2022-10-11T00:45:48.438Z,100547.00
2022-10-11T00:48:27.983Z,100547.60
2022-10-11T00:51:04.355Z,100545.60
2022-10-11T00:53:37.462Z,100546.40
2022-10-11T00:56:18.442Z,100540.20
2022-10-11T00:58:51.722Z,100544.80
2022-10-11T01:01:24.747Z,100547.40
2022-10-11T01:03:58.927Z,100552.20
2022-10-11T01:06:32.030Z,100547.80
2022-10-11T01:09:05.051Z,100550.20
2022-10-11T01:11:39.240Z,100554.20
2022-10-11T01:15:05.563Z,100556.00
2022-10-11T01:17:47.805Z,100553.60
2022-10-11T01:20:46.048Z,100546.00
2022-10-11T01:24:08.591Z,100552.00
2022-10-11T01:27:28.545Z,100562.20
2022-10-11T01:30:25.341Z,100563.80
2022-10-11T01:33:10.404Z,100559.40
2022-10-11T01:35:51.455Z,100556.00
2022-10-11T01:38:29.542Z,100558.80
2022-10-11T01:41:09.480Z,100558.60
2022-10-11T01:43:43.981Z,100562.00
2022-10-11T01:46:18.168Z,100568.40
2022-10-11T01:48:56.117Z,100569.20
2022-10-11T01:51:33.226Z,100574.00
2022-10-11T01:54:49.846Z,100574.60
2022-10-11T01:57:49.155Z,100571.20
2022-10-11T02:00:24.700Z,100575.20
2022-10-11T02:03:25.676Z,100577.60
2022-10-11T02:06:09.465Z,100575.80
2022-10-11T02:08:51.130Z,100578.60
2022-10-11T02:11:30.119Z,100584.20
2022-10-11T02:14:09.525Z,100589.00
2022-10-11T02:16:47.223Z,100590.20
2022-10-11T02:19:24.888Z,100593.20
2022-10-11T02:22:02.681Z,100593.40
2022-10-11T02:24:41.587Z,100598.80
2022-10-11T02:27:15.974Z,100594.80
2022-10-11T02:29:51.213Z,100600.80
2022-10-11T02:32:27.054Z,100611.00
2022-10-11T02:35:02.661Z,100604.20
2022-10-11T02:37:43.029Z,100614.60
2022-10-11T02:40:22.474Z,100618.80
2022-10-11T02:43:01.459Z,100622.00
2022-10-11T02:45:40.072Z,100625.60
2022-10-11T02:48:14.156Z,100631.40
2022-10-11T02:50:47.286Z,100629.40
2022-10-11T02:53:20.083Z,100636.00
2022-10-11T02:55:55.266Z,100648.80
2022-10-11T02:58:28.646Z,100652.00
2022-10-11T03:01:01.414Z,100650.80
2022-10-11T03:03:34.418Z,100652.00
2022-10-11T03:06:08.669Z,100653.80
2022-10-11T03:08:41.931Z,100656.60
2022-10-11T03:11:14.823Z,100655.00
2022-10-11T03:13:47.789Z,100658.80
2022-10-11T03:16:20.568Z,100658.60
2022-10-11T03:18:53.468Z,100658.00
2022-10-11T03:21:26.602Z,100663.20
2022-10-11T03:23:59.484Z,100667.40
2022-10-11T03:26:32.373Z,100671.40
2022-10-11T03:29:05.211Z,100675.80
2022-10-11T03:31:38.354Z,100673.40
2022-10-11T03:34:11.731Z,100677.60
2022-10-11T03:36:44.971Z,100675.60
2022-10-11T03:39:17.871Z,100675.40
2022-10-11T03:41:50.803Z,100690.80
2022-10-11T03:44:23.598Z,100697.00
2022-10-11T03:46:56.411Z,100713.60
2022-10-11T03:49:29.518Z,100711.00
2022-10-11T03:52:02.647Z,100716.20
2022-10-11T03:54:35.497Z,100722.00
2022-10-11T03:57:08.513Z,100725.80
2022-10-11T03:59:41.513Z,100727.40
2022-10-11T04:02:14.484Z,100730.60
2022-10-11T04:04:48.328Z,100735.40
2022-10-11T04:07:21.235Z,100737.40
2022-10-11T04:09:54.287Z,100741.40
2022-10-11T04:12:27.305Z,100744.60
2022-10-11T04:15:00.117Z,100751.40
2022-10-11T04:17:33.089Z,100745.40
2022-10-11T04:20:06.855Z,100746.40
2022-10-11T04:22:40.687Z,100749.80
2022-10-11T04:25:14.310Z,100752.20
2022-10-11T04:27:48.741Z,100751.40
2022-10-11T04:30:22.088Z,100752.00
2022-10-11T04:32:54.840Z,100761.00
2022-10-11T04:35:27.637Z,100767.40
2022-10-11T04:38:00.451Z,100767.00
2022-10-11T04:40:33.623Z,100768.40
2022-10-11T04:43:06.378Z,100770.20
2022-10-11T04:45:39.190Z,100775.80
2022-10-11T04:48:12.548Z,100780.00
2022-10-11T04:50:45.937Z,100780.20
2022-10-11T04:53:22.338Z,100784.20
2022-10-11T04:56:04.141Z,100787.40
2022-10-11T04:58:38.779Z,100793.80
2022-10-11T05:01:12.404Z,100794.00
2022-10-11T05:03:45.287Z,100800.80
2022-10-11T05:06:18.121Z,100798.40
2022-10-11T05:08:51.164Z,100800.40
2022-10-11T05:11:24.066Z,100803.20
2022-10-11T05:13:57.088Z,100803.20
2022-10-11T05:16:30.065Z,100808.40
2022-10-11T05:19:02.822Z,100814.40
2022-10-11T05:21:35.588Z,100821.00
2022-10-11T05:24:09.728Z,100820.40
2022-10-11T05:26:42.493Z,100824.60
2022-10-11T05:29:15.295Z,100831.20
2022-10-11T05:31:48.100Z,100835.60
2022-10-11T05:34:21.310Z,100837.40
2022-10-11T05:36:54.455Z,100841.60
2022-10-11T05:39:27.553Z,100842.60
2022-10-11T05:42:00.533Z,100850.80
2022-10-11T05:44:33.324Z,100852.00
2022-10-11T05:47:06.227Z,100854.80
2022-10-11T05:49:39.504Z,100867.80
2022-10-11T05:52:13.362Z,100867.60
2022-10-11T05:54:46.323Z,100875.40
2022-10-11T05:57:19.229Z,100879.00
2022-10-11T05:59:52.363Z,100882.00
2022-10-11T06:02:25.401Z,100892.60
2022-10-11T06:04:58.242Z,100895.60
2022-10-11T06:07:31.568Z,100899.00
2022-10-11T06:10:04.520Z,100910.00
2022-10-11T06:12:37.742Z,100913.80
2022-10-11T06:15:12.644Z,100908.20
2022-10-11T06:17:45.485Z,100921.20
2022-10-11T06:20:18.749Z,100927.00
2022-10-11T06:22:51.537Z,100934.20
2022-10-11T06:25:24.483Z,100938.40
2022-10-11T06:27:57.684Z,100940.20
2022-10-11T06:30:30.542Z,100944.40
2022-10-11T06:33:04.947Z,100950.80
2022-10-11T06:35:38.148Z,100955.00
2022-10-11T06:38:11.006Z,100958.80
2022-10-11T06:40:43.902Z,100969.00
2022-10-11T06:43:16.773Z,100970.00
2022-10-11T06:45:49.851Z,100977.80
2022-10-11T06:48:22.725Z,100981.80
2022-10-11T06:50:59.920Z,100986.40
2022-10-11T06:53:33.281Z,100988.80
2022-10-11T06:56:12.111Z,100992.60
2022-10-11T06:58:45.122Z,100997.60
2022-10-11T07:01:21.455Z,100996.20
2022-10-11T07:03:56.372Z,100997.40
2022-10-11T07:06:31.515Z,101004.00
2022-10-11T07:09:05.715Z,101006.00
2022-10-11T07:11:38.889Z,101011.20
2022-10-11T07:14:12.504Z,101014.40
2022-10-11T07:16:45.372Z,101020.60
2022-10-11T07:19:18.261Z,101020.20
2022-10-11T07:21:51.297Z,101027.40
2022-10-11T07:24:24.253Z,101027.20
2022-10-11T07:26:57.131Z,101025.40
2022-10-11T07:29:29.962Z,101030.00
2022-10-11T07:32:02.934Z,101029.20
2022-10-11T07:34:36.035Z,101035.80
2022-10-11T07:37:08.835Z,101038.40
2022-10-11T07:39:42.162Z,101041.60
2022-10-11T07:42:14.884Z,101046.40
2022-10-11T07:44:47.680Z,101051.00
2022-10-11T07:47:20.467Z,101049.40
2022-10-11T07:49:53.261Z,101055.20
2022-10-11T07:52:26.095Z,101062.60
2022-10-11T07:54:59.047Z,101057.80
2022-10-11T07:57:31.825Z,101060.60
2022-10-11T08:00:05.899Z,101063.40
2022-10-11T08:02:44.721Z,101067.20
2022-10-11T08:05:18.245Z,101061.20
2022-10-11T08:07:51.311Z,101072.60
2022-10-11T08:10:24.565Z,101070.40
2022-10-11T08:13:01.915Z,101075.60
2022-10-11T08:15:37.587Z,101066.20
2022-10-11T08:18:13.123Z,101075.00
2022-10-11T08:20:46.349Z,101072.80
2022-10-11T08:23:20.772Z,101067.40
2022-10-11T08:25:59.391Z,101074.40
2022-10-11T08:28:32.542Z,101072.60
2022-10-11T08:31:06.089Z,101080.60
2022-10-11T08:33:39.724Z,101076.40
2022-10-11T08:36:13.614Z,101077.00
2022-10-11T08:38:46.555Z,101081.40
2022-10-11T08:41:39.362Z,101081.20
2022-10-11T08:44:41.383Z,101084.00
2022-10-11T08:47:27.827Z,101075.80
2022-10-11T08:50:01.487Z,101078.00
2022-10-11T08:52:45.195Z,101084.20
2022-10-11T08:55:25.668Z,101081.00
2022-10-11T08:58:00.127Z,101080.20
2022-10-11T09:00:35.042Z,101085.40
2022-10-11T09:03:22.381Z,101090.80
2022-10-11T09:06:13.832Z,101099.80
2022-10-11T09:09:05.487Z,101098.00
2022-10-11T09:11:50.794Z,101101.60
2022-10-11T09:14:51.281Z,101100.60
2022-10-11T09:17:37.848Z,101099.00
2022-10-11T09:20:48.614Z,101099.20
2022-10-11T09:23:40.080Z,101094.80
2022-10-11T09:26:21.233Z,101100.60
2022-10-11T09:29:06.896Z,101101.40
2022-10-11T09:31:39.905Z,101102.60
2022-10-11T09:34:16.887Z,101111.00
2022-10-11T09:36:56.530Z,101105.40
2022-10-11T09:39:34.555Z,101107.20
2022-10-11T09:42:10.209Z,101101.60
2022-10-11T09:44:48.991Z,101102.00
2022-10-11T09:47:26.335Z,101105.40
2022-10-11T09:50:03.491Z,101102.20
2022-10-11T09:52:48.876Z,101106.80
2022-10-11T09:55:40.755Z,101105.00
2022-10-11T09:58:33.949Z,101115.80
2022-10-11T10:01:09.907Z,101119.80
2022-10-11T10:03:45.585Z,101110.80
2022-10-11T10:06:23.916Z,101106.20
2022-10-11T10:08:58.477Z,101110.20
2022-10-11T10:11:39.124Z,101110.00
2022-10-11T10:14:23.512Z,101119.60
2022-10-11T10:17:06.687Z,101124.20
2022-10-11T10:19:50.769Z,101130.80
2022-10-11T10:22:27.175Z,101119.20
2022-10-11T10:25:02.860Z,101123.80
2022-10-11T10:27:35.706Z,101130.80
2022-10-11T10:30:20.818Z,101135.20
2022-10-11T10:33:00.387Z,101135.00
2022-10-11T10:35:38.852Z,101127.20
2022-10-11T10:38:20.766Z,101133.60
2022-10-11T10:40:59.488Z,101130.80
2022-10-11T10:43:37.287Z,101137.80
2022-10-11T10:46:50.325Z,101130.60
2022-10-11T10:49:53.152Z,101132.80
2022-10-11T10:52:56.248Z,101144.00
2022-10-11T10:55:39.539Z,101138.00
2022-10-11T10:58:34.076Z,101133.00
2022-10-11T11:01:16.800Z,101139.60
2022-10-11T11:03:59.009Z,101137.00
2022-10-11T11:06:43.093Z,101135.40
2022-10-11T11:09:31.538Z,101140.40
2022-10-11T11:12:21.180Z,101136.20
2022-10-11T11:15:04.342Z,101140.40
2022-10-11T11:17:52.322Z,101140.00
2022-10-11T11:20:40.167Z,101136.80
2022-10-11T11:23:28.303Z,101147.60
2022-10-11T11:26:12.427Z,101136.80
2022-10-11T11:29:07.639Z,101153.00
2022-10-11T11:32:09.800Z,101149.00
2022-10-11T11:34:46.557Z,101148.00
2022-10-11T11:37:30.218Z,101145.20
2022-10-11T11:40:15.112Z,101147.40
2022-10-11T11:42:50.393Z,101145.20
2022-10-11T11:45:27.633Z,101150.40
2022-10-11T11:48:05.255Z,101152.00
2022-10-11T11:50:44.023Z,101155.20
2022-10-11T11:53:23.328Z,101150.80
2022-10-11T11:56:02.435Z,101164.60
2022-10-11T11:58:45.130Z,101162.00
2022-10-11T12:01:31.147Z,101164.60
2022-10-11T12:04:13.571Z,101156.20
2022-10-11T12:07:11.196Z,101155.40
2022-10-11T12:09:42.571Z,101155.00
2022-10-11T12:12:37.219Z,101158.40
2022-10-11T12:15:25.152Z,101158.60
2022-10-11T12:18:15.337Z,101160.80
2022-10-11T12:20:48.279Z,101158.80
2022-10-11T12:23:48.158Z,101157.20
2022-10-11T12:26:45.948Z,101156.60
2022-10-11T12:29:48.013Z,101159.00
2022-10-11T12:33:04.170Z,101163.60
2022-10-11T12:36:04.181Z,101164.40
2022-10-11T12:38:42.079Z,101161.40
2022-10-11T12:41:53.813Z,101159.80
2022-10-11T12:44:29.471Z,101163.80
2022-10-11T12:47:38.180Z,101163.60
2022-10-11T12:50:18.065Z,101160.00
2022-10-11T12:53:05.888Z,101162.40
2022-10-11T12:55:54.029Z,101162.60
2022-10-11T12:58:38.468Z,101158.20
2022-10-11T13:01:27.645Z,101155.40
2022-10-11T13:04:09.204Z,101157.00
2022-10-11T13:06:50.377Z,101157.00
2022-10-11T13:09:31.799Z,101167.60
2022-10-11T13:12:09.969Z,101169.60
2022-10-11T13:14:47.428Z,101170.60
2022-10-11T13:17:26.082Z,101164.80
2022-10-11T13:20:17.106Z,101170.20
2022-10-11T13:22:53.686Z,101160.80
2022-10-11T13:25:28.957Z,101166.60
2022-10-11T13:28:02.781Z,101166.60
2022-10-11T13:30:38.646Z,101165.80
2022-10-11T13:33:20.166Z,101170.40
2022-10-11T13:35:53.895Z,101171.00
2022-10-11T13:38:30.802Z,101162.80
2022-10-11T13:41:08.521Z,101162.00
2022-10-11T13:43:41.895Z,101160.60
2022-10-11T13:46:21.891Z,101157.80
2022-10-11T13:49:37.420Z,101156.20
2022-10-11T13:52:24.700Z,101158.80
2022-10-11T13:55:26.111Z,101161.40
2022-10-11T13:58:00.737Z,101159.00
2022-10-11T14:00:38.525Z,101158.40
2022-10-11T14:03:21.467Z,101158.20
2022-10-11T14:06:01.415Z,101160.00
2022-10-11T14:08:40.043Z,101164.40
2022-10-11T14:11:14.570Z,101155.00
2022-10-11T14:13:50.072Z,101155.00
2022-10-11T14:16:34.463Z,101157.20
2022-10-11T14:19:19.469Z,101157.40
2022-10-11T14:21:56.608Z,101159.60
2022-10-11T14:24:29.562Z,101160.00
2022-10-11T14:27:05.864Z,101154.40
2022-10-11T14:30:00.285Z,101156.60
2022-10-11T14:32:39.962Z,101156.40
2022-10-11T14:35:18.958Z,101159.00
2022-10-11T14:37:52.249Z,101159.20
2022-10-11T14:40:28.772Z,101163.00
2022-10-11T14:43:01.655Z,101162.40
2022-10-11T14:45:35.252Z,101167.60
2022-10-11T14:48:08.732Z,101167.80
2022-10-11T14:50:47.937Z,101165.60
2022-10-11T14:53:20.831Z,101163.80
2022-10-11T14:55:54.099Z,101162.80
2022-10-11T14:58:27.040Z,101163.80
2022-10-11T15:00:59.856Z,101167.20
2022-10-11T15:03:32.882Z,101167.40
2022-10-11T15:06:06.570Z,101162.60
2022-10-11T15:08:40.086Z,101166.00
2022-10-11T15:11:14.548Z,101162.40
2022-10-11T15:13:47.546Z,101164.20
2022-10-11T15:16:23.185Z,101160.40
2022-10-11T15:18:56.306Z,101163.20
2022-10-11T15:21:31.279Z,101163.80
2022-10-11T15:24:04.223Z,101159.60
2022-10-11T15:26:37.354Z,101163.40
2022-10-11T15:29:13.400Z,101166.40
2022-10-11T15:31:47.310Z,101169.60
2022-10-11T15:34:20.389Z,101168.40
2022-10-11T15:36:53.304Z,101167.20
2022-10-11T15:39:32.745Z,101164.80
2022-10-11T15:42:05.844Z,101168.40
2022-10-11T15:44:38.816Z,101170.80
2022-10-11T15:47:12.242Z,101170.60
2022-10-11T15:49:45.365Z,101174.20
2022-10-11T15:52:18.354Z,101176.80
2022-10-11T15:54:51.164Z,101176.80
2022-10-11T15:57:24.124Z,101179.60
2022-10-11T15:59:57.050Z,101176.60
2022-10-11T16:02:30.052Z,101176.40
2022-10-11T16:05:03.497Z,101177.20
2022-10-11T16:07:36.697Z,101175.40
2022-10-11T16:10:11.022Z,101174.40
2022-10-11T16:12:44.127Z,101183.40
2022-10-11T16:15:17.495Z,101181.80
2022-10-11T16:17:50.338Z,101186.00
2022-10-11T16:20:25.847Z,101191.40
2022-10-11T16:22:58.922Z,101191.60
2022-10-11T16:25:31.925Z,101194.60
2022-10-11T16:28:05.275Z,101188.00
2022-10-11T16:30:41.176Z,101192.20
2022-10-11T16:33:14.009Z,101191.80
2022-10-11T16:35:46.893Z,101190.00
2022-10-11T16:38:19.989Z,101188.20
2022-10-11T16:40:52.985Z,101187.00
2022-10-11T16:43:25.875Z,101185.20
2022-10-11T16:46:02.807Z,101194.00
2022-10-11T16:48:35.459Z,101196.80
2022-10-11T16:51:12.311Z,101202.40
2022-10-11T16:53:45.237Z,101202.60
2022-10-11T16:56:20.702Z,101202.40
2022-10-11T16:58:54.286Z,101203.60
2022-10-11T17:01:27.132Z,101206.80
2022-10-11T17:04:00.187Z,101208.40
2022-10-11T17:06:33.170Z,101204.60
2022-10-11T17:09:06.228Z,101206.80
2022-10-11T17:11:39.085Z,101217.60
2022-10-11T17:14:12.957Z,101218.60
2022-10-11T17:16:46.472Z,101215.60
2022-10-11T17:19:20.366Z,101215.40
2022-10-11T17:21:53.213Z,101224.00
2022-10-11T17:24:26.461Z,101223.60
2022-10-11T17:26:59.344Z,101224.40
2022-10-11T17:29:32.392Z,101227.60
2022-10-11T17:32:06.025Z,101228.20
2022-10-11T17:34:39.877Z,101229.60
2022-10-11T17:37:12.811Z,101233.80
2022-10-11T17:39:45.722Z,101231.40
2022-10-11T17:42:18.592Z,101232.80
2022-10-11T17:44:51.543Z,101231.00
2022-10-11T17:47:24.468Z,101231.20
2022-10-11T17:49:57.228Z,101223.60
2022-10-11T17:52:30.301Z,101230.60
2022-10-11T17:55:03.300Z,101231.00
2022-10-11T17:57:36.236Z,101230.00
2022-10-11T18:00:11.877Z,101235.20
2022-10-11T18:02:44.764Z,101229.20
2022-10-11T18:05:17.808Z,101235.40
2022-10-11T18:07:53.143Z,101235.60
2022-10-11T18:10:27.450Z,101236.60
2022-10-11T18:13:05.780Z,101235.00
2022-10-11T18:15:39.484Z,101232.40
2022-10-11T18:18:12.924Z,101234.00
2022-10-11T18:20:50.168Z,101227.20
2022-10-11T18:23:23.246Z,101234.20
2022-10-11T18:25:56.533Z,101234.00
2022-10-11T18:28:29.478Z,101237.60
2022-10-11T18:31:02.380Z,101238.20
2022-10-11T18:33:36.309Z,101240.80
2022-10-11T18:36:13.590Z,101229.40
2022-10-11T18:38:49.314Z,101233.20
2022-10-11T18:41:24.911Z,101236.00
2022-10-11T18:44:00.508Z,101232.80
2022-10-11T18:46:34.023Z,101235.60
2022-10-11T18:49:07.180Z,101234.40
2022-10-11T18:51:42.498Z,101232.40
2022-10-11T18:54:20.246Z,101231.60
2022-10-11T18:56:54.643Z,101232.60
2022-10-11T18:59:27.631Z,101237.00
2022-10-11T19:02:00.688Z,101235.80
2022-10-11T19:04:34.489Z,101233.80
2022-10-11T19:07:07.266Z,101231.00
2022-10-11T19:09:40.381Z,101227.80
2022-10-11T19:12:13.207Z,101230.20
2022-10-11T19:14:46.283Z,101234.20
2022-10-11T19:17:22.694Z,101237.40
2022-10-11T19:19:55.645Z,101237.60
2022-10-11T19:22:28.531Z,101242.00
2022-10-11T19:25:01.483Z,101242.20
2022-10-11T19:27:34.285Z,101241.80
2022-10-11T19:30:08.498Z,101241.40
2022-10-11T19:32:41.347Z,101244.00
2022-10-11T19:35:19.719Z,101241.20
2022-10-11T19:37:52.788Z,101247.00
2022-10-11T19:40:27.277Z,101248.00
2022-10-11T19:43:02.927Z,101251.20
2022-10-11T19:45:37.835Z,101246.60
2022-10-11T19:48:11.235Z,101245.20
2022-10-11T19:50:44.178Z,101246.80
2022-10-11T19:53:16.966Z,101245.60
2022-10-11T19:55:50.210Z,101252.00
2022-10-11T19:58:23.037Z,101248.20
2022-10-11T20:01:04.247Z,101262.20
2022-10-11T20:03:37.450Z,101256.80
2022-10-11T20:06:12.490Z,101256.40
2022-10-11T20:08:48.222Z,101255.60
2022-10-11T20:11:26.705Z,101254.60
2022-10-11T20:13:59.866Z,101258.20
2022-10-11T20:16:33.191Z,101255.40
2022-10-11T20:19:06.399Z,101253.40
2022-10-11T20:21:39.130Z,101255.00
2022-10-11T20:24:12.262Z,101253.60
2022-10-11T20:26:45.149Z,101254.80
2022-10-11T20:29:18.218Z,101254.60
2022-10-11T20:31:51.112Z,101259.60
2022-10-11T20:34:23.969Z,101258.80
2022-10-11T20:36:56.724Z,101261.20
2022-10-11T20:39:29.744Z,101260.20
2022-10-11T20:42:02.878Z,101262.60
2022-10-11T20:44:35.883Z,101269.00
2022-10-11T20:47:09.869Z,101273.60
2022-10-11T20:49:42.849Z,101265.00
2022-10-11T20:52:15.851Z,101264.40
2022-10-11T20:54:48.753Z,101266.40
2022-10-11T20:57:21.651Z,101268.60
2022-10-11T20:59:54.502Z,101270.20
2022-10-11T21:02:27.397Z,101270.20
2022-10-11T21:05:00.169Z,101272.20
2022-10-11T21:07:33.176Z,101265.40
2022-10-11T21:10:06.800Z,101266.40
2022-10-11T21:12:39.708Z,101264.20
2022-10-11T21:15:13.660Z,101268.00
2022-10-11T21:17:46.535Z,101269.80
2022-10-11T21:20:19.839Z,101268.40
2022-10-11T21:22:52.772Z,101269.20
2022-10-11T21:25:25.649Z,101269.40
2022-10-11T21:27:58.686Z,101272.80
2022-10-11T21:30:31.674Z,101276.60
2022-10-11T21:33:04.694Z,101272.60
2022-10-11T21:35:41.508Z,101276.00
2022-10-11T21:38:14.874Z,101270.40
2022-10-11T21:40:47.773Z,101277.20
2022-10-11T21:43:20.701Z,101274.60
2022-10-11T21:45:53.544Z,101273.20
2022-10-11T21:48:26.445Z,101276.80
2022-10-11T21:50:59.483Z,101277.00
2022-10-11T21:53:32.410Z,101280.80
2022-10-11T21:56:05.461Z,101276.60
2022-10-11T21:58:38.400Z,101273.60
2022-10-11T22:01:12.215Z,101273.80
2022-10-11T22:03:45.526Z,101278.40
2022-10-11T22:06:21.511Z,101272.80
2022-10-11T22:08:55.120Z,101271.80
2022-10-11T22:11:28.851Z,101273.20
2022-10-11T22:14:02.182Z,101272.00
2022-10-11T22:16:36.341Z,101272.20
2022-10-11T22:19:09.477Z,101270.00
2022-10-11T22:21:45.041Z,101267.00
2022-10-11T22:24:19.309Z,101265.60
2022-10-11T22:26:52.616Z,101271.00
2022-10-11T22:29:27.690Z,101270.20
2022-10-11T22:32:03.632Z,101270.40
2022-10-11T22:34:37.368Z,101269.00
2022-10-11T22:37:10.504Z,101272.80
2022-10-11T22:39:43.722Z,101268.20
2022-10-11T22:42:17.067Z,101271.80
2022-10-11T22:44:50.976Z,101268.80
2022-10-11T22:47:24.166Z,101264.20
2022-10-11T22:49:57.396Z,101267.60
2022-10-11T22:52:30.553Z,101266.00
2022-10-11T22:55:03.783Z,101264.40
2022-10-11T22:57:37.364Z,101269.20
2022-10-11T23:00:13.901Z,101266.80
2022-10-11T23:02:47.249Z,101267.40
2022-10-11T23:06:02.119Z,101269.80
2022-10-11T23:08:35.525Z,101264.20
2022-10-11T23:11:10.273Z,101260.20
2022-10-11T23:13:43.532Z,101265.40
2022-10-11T23:16:17.144Z,101266.20
2022-10-11T23:18:52.764Z,101268.80
2022-10-11T23:21:26.079Z,101272.20
2022-10-11T23:23:59.658Z,101264.80
2022-10-11T23:26:32.830Z,101273.80
2022-10-11T23:29:06.458Z,101275.00
2022-10-11T23:31:39.608Z,101267.60
2022-10-11T23:34:12.801Z,101271.60
2022-10-11T23:36:46.237Z,101275.80
2022-10-11T23:39:19.857Z,101274.80
2022-10-11T23:41:53.038Z,101280.80
2022-10-11T23:44:26.262Z,101276.20
2022-10-11T23:46:59.527Z,101274.20
2022-10-11T23:49:32.705Z,101282.20
2022-10-11T23:52:05.976Z,101283.40
2022-10-11T23:54:40.084Z,101279.20
2022-10-11T23:57:13.072Z,101282.00
2022-10-11T23:59:45.849Z,101280.00
